sensor_id;sensor_type;location;lat;lon;timestamp;P1;durP1;ratioP1;P2;durP2;ratioP2
64619;SDS011;51029;51.058;13.826;2022-12-08T00:00:35;9.37;;;5.77;;
64619;SDS011;51029;51.058;13.826;2022-12-08T00:03:01;8.00;;;5.40;;
64619;SDS011;51029;51.058;13.826;2022-12-08T00:05:26;9.20;;;5.30;;
64619;SDS011;51029;51.058;13.826;2022-12-08T00:08:10;7.27;;;5.57;;
64619;SDS011;51029;51.058;13.826;2022-12-08T00:10:54;7.40;;;4.97;;
64619;SDS011;51029;51.058;13.826;2022-12-08T00:13:20;6.30;;;5.10;;
64619;SDS011;51029;51.058;13.826;2022-12-08T00:15:45;8.90;;;5.20;;
64619;SDS011;51029;51.058;13.826;2022-12-08T00:18:11;9.27;;;5.73;;
64619;SDS011;51029;51.058;13.826;2022-12-08T00:20:37;8.33;;;6.13;;
64619;SDS011;51029;51.058;13.826;2022-12-08T00:23:02;6.13;;;5.27;;
64619;SDS011;51029;51.058;13.826;2022-12-08T00:25:28;15.43;;;9.00;;
64619;SDS011;51029;51.058;13.826;2022-12-08T00:27:55;24.90;;;13.33;;
64619;SDS011;51029;51.058;13.826;2022-12-08T00:30:20;12.37;;;7.40;;
64619;SDS011;51029;51.058;13.826;2022-12-08T00:32:46;8.30;;;4.80;;
64619;SDS011;51029;51.058;13.826;2022-12-08T00:35:11;8.70;;;6.30;;
64619;SDS011;51029;51.058;13.826;2022-12-08T00:37:37;9.93;;;5.97;;
64619;SDS011;51029;51.058;13.826;2022-12-08T00:40:02;7.43;;;4.33;;
64619;SDS011;51029;51.058;13.826;2022-12-08T00:42:28;7.43;;;4.73;;
64619;SDS011;51029;51.058;13.826;2022-12-08T00:44:54;10.27;;;5.27;;
64619;SDS011;51029;51.058;13.826;2022-12-08T00:47:20;8.20;;;5.23;;
64619;SDS011;51029;51.058;13.826;2022-12-08T00:49:45;7.13;;;4.93;;
64619;SDS011;51029;51.058;13.826;2022-12-08T00:52:11;7.90;;;5.07;;
64619;SDS011;51029;51.058;13.826;2022-12-08T00:54:37;7.87;;;5.33;;
64619;SDS011;51029;51.058;13.826;2022-12-08T00:57:02;7.47;;;4.87;;
64619;SDS011;51029;51.058;13.826;2022-12-08T00:59:28;5.73;;;5.00;;
64619;SDS011;51029;51.058;13.826;2022-12-08T01:01:54;8.50;;;5.17;;
64619;SDS011;51029;51.058;13.826;2022-12-08T01:04:19;10.93;;;5.17;;
64619;SDS011;51029;51.058;13.826;2022-12-08T01:06:45;7.13;;;4.53;;
64619;SDS011;51029;51.058;13.826;2022-12-08T01:09:12;8.80;;;5.30;;
64619;SDS011;51029;51.058;13.826;2022-12-08T01:11:39;7.73;;;5.30;;
64619;SDS011;51029;51.058;13.826;2022-12-08T01:14:04;8.93;;;4.70;;
64619;SDS011;51029;51.058;13.826;2022-12-08T01:16:31;6.63;;;5.13;;
64619;SDS011;51029;51.058;13.826;2022-12-08T01:18:59;7.80;;;5.33;;
64619;SDS011;51029;51.058;13.826;2022-12-08T01:21:25;7.13;;;5.23;;
64619;SDS011;51029;51.058;13.826;2022-12-08T01:23:50;9.03;;;5.20;;
64619;SDS011;51029;51.058;13.826;2022-12-08T01:26:16;8.30;;;5.20;;
64619;SDS011;51029;51.058;13.826;2022-12-08T01:28:44;8.27;;;5.60;;
64619;SDS011;51029;51.058;13.826;2022-12-08T01:31:11;7.47;;;5.40;;
64619;SDS011;51029;51.058;13.826;2022-12-08T01:33:38;7.10;;;5.43;;
64619;SDS011;51029;51.058;13.826;2022-12-08T01:36:04;7.87;;;5.30;;
64619;SDS011;51029;51.058;13.826;2022-12-08T01:38:31;6.30;;;4.90;;
64619;SDS011;51029;51.058;13.826;2022-12-08T01:40:57;7.90;;;5.47;;
64619;SDS011;51029;51.058;13.826;2022-12-08T01:43:23;7.63;;;5.63;;
64619;SDS011;51029;51.058;13.826;2022-12-08T01:45:49;8.50;;;5.40;;
64619;SDS011;51029;51.058;13.826;2022-12-08T01:48:19;6.00;;;5.37;;
64619;SDS011;51029;51.058;13.826;2022-12-08T01:50:48;7.83;;;5.63;;
64619;SDS011;51029;51.058;13.826;2022-12-08T01:53:16;5.60;;;5.00;;
64619;SDS011;51029;51.058;13.826;2022-12-08T01:58:17;8.23;;;5.20;;
64619;SDS011;51029;51.058;13.826;2022-12-08T02:00:50;6.60;;;5.27;;
64619;SDS011;51029;51.058;13.826;2022-12-08T02:03:20;6.50;;;4.73;;
64619;SDS011;51029;51.058;13.826;2022-12-08T02:05:52;7.73;;;5.53;;
64619;SDS011;51029;51.058;13.826;2022-12-08T02:08:18;6.03;;;4.57;;
64619;SDS011;51029;51.058;13.826;2022-12-08T02:10:45;8.83;;;5.07;;
64619;SDS011;51029;51.058;13.826;2022-12-08T02:13:12;7.10;;;5.00;;
64619;SDS011;51029;51.058;13.826;2022-12-08T02:21:20;7.60;;;5.00;;
64619;SDS011;51029;51.058;13.826;2022-12-08T02:24:18;5.90;;;5.07;;
64619;SDS011;51029;51.058;13.826;2022-12-08T02:37:30;9.60;;;5.37;;
64619;SDS011;51029;51.058;13.826;2022-12-08T02:40:04;8.57;;;5.43;;
64619;SDS011;51029;51.058;13.826;2022-12-08T02:42:36;7.20;;;6.00;;
64619;SDS011;51029;51.058;13.826;2022-12-08T02:45:15;8.47;;;6.47;;
64619;SDS011;51029;51.058;13.826;2022-12-08T02:47:55;8.37;;;5.77;;
64619;SDS011;51029;51.058;13.826;2022-12-08T02:50:22;7.77;;;5.73;;
64619;SDS011;51029;51.058;13.826;2022-12-08T02:52:48;8.10;;;6.13;;
64619;SDS011;51029;51.058;13.826;2022-12-08T02:55:27;8.67;;;6.30;;
64619;SDS011;51029;51.058;13.826;2022-12-08T02:58:05;8.60;;;6.40;;
64619;SDS011;51029;51.058;13.826;2022-12-08T03:03:34;7.70;;;6.13;;
64619;SDS011;51029;51.058;13.826;2022-12-08T03:14:03;8.90;;;6.27;;
64619;SDS011;51029;51.058;13.826;2022-12-08T03:16:31;8.30;;;6.97;;
64619;SDS011;51029;51.058;13.826;2022-12-08T03:18:59;8.67;;;6.50;;
64619;SDS011;51029;51.058;13.826;2022-12-08T03:21:58;9.90;;;6.43;;
64619;SDS011;51029;51.058;13.826;2022-12-08T03:24:30;8.93;;;5.90;;
64619;SDS011;51029;51.058;13.826;2022-12-08T03:26:59;8.40;;;6.43;;
64619;SDS011;51029;51.058;13.826;2022-12-08T03:29:29;8.63;;;6.63;;
64619;SDS011;51029;51.058;13.826;2022-12-08T03:34:54;8.13;;;6.33;;
64619;SDS011;51029;51.058;13.826;2022-12-08T03:37:21;8.13;;;6.30;;
64619;SDS011;51029;51.058;13.826;2022-12-08T03:39:47;9.27;;;6.73;;
64619;SDS011;51029;51.058;13.826;2022-12-08T03:42:12;8.27;;;6.10;;
64619;SDS011;51029;51.058;13.826;2022-12-08T03:44:38;8.67;;;6.53;;
64619;SDS011;51029;51.058;13.826;2022-12-08T03:47:03;8.13;;;6.33;;
64619;SDS011;51029;51.058;13.826;2022-12-08T03:49:29;8.13;;;6.40;;
64619;SDS011;51029;51.058;13.826;2022-12-08T03:51:55;9.37;;;7.13;;
64619;SDS011;51029;51.058;13.826;2022-12-08T03:54:20;9.33;;;6.40;;
64619;SDS011;51029;51.058;13.826;2022-12-08T03:56:46;7.60;;;6.13;;
64619;SDS011;51029;51.058;13.826;2022-12-08T03:59:11;7.17;;;6.13;;
64619;SDS011;51029;51.058;13.826;2022-12-08T04:01:37;8.87;;;6.43;;
64619;SDS011;51029;51.058;13.826;2022-12-08T04:04:02;6.63;;;5.93;;
64619;SDS011;51029;51.058;13.826;2022-12-08T04:06:28;7.33;;;5.70;;
64619;SDS011;51029;51.058;13.826;2022-12-08T04:08:54;7.30;;;5.97;;
64619;SDS011;51029;51.058;13.826;2022-12-08T04:11:19;7.40;;;6.70;;
64619;SDS011;51029;51.058;13.826;2022-12-08T04:13:45;8.77;;;6.57;;
64619;SDS011;51029;51.058;13.826;2022-12-08T04:16:18;7.93;;;6.40;;
64619;SDS011;51029;51.058;13.826;2022-12-08T04:18:46;7.00;;;6.07;;
64619;SDS011;51029;51.058;13.826;2022-12-08T04:21:12;9.30;;;6.60;;
64619;SDS011;51029;51.058;13.826;2022-12-08T04:23:38;8.13;;;5.90;;
64619;SDS011;51029;51.058;13.826;2022-12-08T04:26:03;8.73;;;6.23;;
64619;SDS011;51029;51.058;13.826;2022-12-08T04:28:29;9.60;;;6.80;;
64619;SDS011;51029;51.058;13.826;2022-12-08T04:30:55;9.23;;;6.43;;
64619;SDS011;51029;51.058;13.826;2022-12-08T04:33:21;7.20;;;6.50;;
64619;SDS011;51029;51.058;13.826;2022-12-08T04:35:46;6.60;;;5.90;;
64619;SDS011;51029;51.058;13.826;2022-12-08T04:38:12;7.50;;;6.70;;
64619;SDS011;51029;51.058;13.826;2022-12-08T04:40:38;7.70;;;6.63;;
64619;SDS011;51029;51.058;13.826;2022-12-08T04:43:03;7.80;;;6.63;;
64619;SDS011;51029;51.058;13.826;2022-12-08T04:45:29;8.77;;;7.07;;
64619;SDS011;51029;51.058;13.826;2022-12-08T04:47:55;7.93;;;7.00;;
64619;SDS011;51029;51.058;13.826;2022-12-08T04:50:22;10.90;;;6.93;;
64619;SDS011;51029;51.058;13.826;2022-12-08T04:52:47;7.47;;;6.40;;
64619;SDS011;51029;51.058;13.826;2022-12-08T04:55:13;9.73;;;6.97;;
64619;SDS011;51029;51.058;13.826;2022-12-08T04:57:38;7.73;;;6.87;;
64619;SDS011;51029;51.058;13.826;2022-12-08T05:00:04;7.13;;;6.20;;
64619;SDS011;51029;51.058;13.826;2022-12-08T05:02:31;8.40;;;7.03;;
64619;SDS011;51029;51.058;13.826;2022-12-08T05:04:57;8.63;;;6.57;;
64619;SDS011;51029;51.058;13.826;2022-12-08T05:07:23;7.53;;;6.30;;
64619;SDS011;51029;51.058;13.826;2022-12-08T05:09:49;8.73;;;6.87;;
64619;SDS011;51029;51.058;13.826;2022-12-08T05:12:14;8.77;;;6.43;;
64619;SDS011;51029;51.058;13.826;2022-12-08T05:14:40;7.63;;;6.30;;
64619;SDS011;51029;51.058;13.826;2022-12-08T05:17:05;8.17;;;6.50;;
64619;SDS011;51029;51.058;13.826;2022-12-08T05:19:31;9.10;;;6.73;;
64619;SDS011;51029;51.058;13.826;2022-12-08T05:21:56;8.53;;;7.33;;
64619;SDS011;51029;51.058;13.826;2022-12-08T05:24:22;7.93;;;6.77;;
64619;SDS011;51029;51.058;13.826;2022-12-08T05:26:47;9.10;;;6.90;;
64619;SDS011;51029;51.058;13.826;2022-12-08T05:29:13;7.67;;;6.77;;
64619;SDS011;51029;51.058;13.826;2022-12-08T05:31:38;8.30;;;6.43;;
64619;SDS011;51029;51.058;13.826;2022-12-08T05:34:04;8.70;;;6.57;;
64619;SDS011;51029;51.058;13.826;2022-12-08T05:36:29;7.73;;;6.93;;
64619;SDS011;51029;51.058;13.826;2022-12-08T05:38:55;6.60;;;6.00;;
64619;SDS011;51029;51.058;13.826;2022-12-08T05:41:21;7.37;;;6.13;;
64619;SDS011;51029;51.058;13.826;2022-12-08T05:43:47;9.47;;;7.20;;
64619;SDS011;51029;51.058;13.826;2022-12-08T05:46:13;7.07;;;6.37;;
64619;SDS011;51029;51.058;13.826;2022-12-08T05:48:40;9.10;;;6.37;;
64619;SDS011;51029;51.058;13.826;2022-12-08T05:51:06;7.63;;;6.83;;
64619;SDS011;51029;51.058;13.826;2022-12-08T05:53:39;9.33;;;7.03;;
64619;SDS011;51029;51.058;13.826;2022-12-08T05:56:04;9.07;;;7.50;;
64619;SDS011;51029;51.058;13.826;2022-12-08T05:58:30;9.13;;;7.47;;
64619;SDS011;51029;51.058;13.826;2022-12-08T06:00:55;9.73;;;7.50;;
64619;SDS011;51029;51.058;13.826;2022-12-08T06:03:21;8.40;;;7.50;;
64619;SDS011;51029;51.058;13.826;2022-12-08T06:05:47;9.27;;;7.20;;
64619;SDS011;51029;51.058;13.826;2022-12-08T06:08:12;7.93;;;6.97;;
64619;SDS011;51029;51.058;13.826;2022-12-08T06:10:41;10.20;;;8.10;;
64619;SDS011;51029;51.058;13.826;2022-12-08T06:13:08;8.93;;;7.40;;
64619;SDS011;51029;51.058;13.826;2022-12-08T06:15:34;9.77;;;7.67;;
64619;SDS011;51029;51.058;13.826;2022-12-08T06:18:01;8.63;;;7.73;;
64619;SDS011;51029;51.058;13.826;2022-12-08T06:20:27;8.97;;;7.27;;
64619;SDS011;51029;51.058;13.826;2022-12-08T06:22:53;10.07;;;7.60;;
64619;SDS011;51029;51.058;13.826;2022-12-08T06:25:19;9.97;;;7.30;;
64619;SDS011;51029;51.058;13.826;2022-12-08T06:27:45;10.13;;;8.30;;
64619;SDS011;51029;51.058;13.826;2022-12-08T06:30:11;9.70;;;8.43;;
64619;SDS011;51029;51.058;13.826;2022-12-08T06:32:36;8.87;;;7.70;;
64619;SDS011;51029;51.058;13.826;2022-12-08T06:35:02;7.90;;;7.00;;
64619;SDS011;51029;51.058;13.826;2022-12-08T06:37:28;9.27;;;7.80;;
64619;SDS011;51029;51.058;13.826;2022-12-08T06:39:53;7.73;;;6.97;;
64619;SDS011;51029;51.058;13.826;2022-12-08T06:42:19;8.97;;;7.23;;
64619;SDS011;51029;51.058;13.826;2022-12-08T06:45:03;9.27;;;7.57;;
64619;SDS011;51029;51.058;13.826;2022-12-08T06:47:29;8.47;;;7.67;;
64619;SDS011;51029;51.058;13.826;2022-12-08T06:49:55;7.43;;;6.67;;
64619;SDS011;51029;51.058;13.826;2022-12-08T06:52:20;8.10;;;6.87;;
64619;SDS011;51029;51.058;13.826;2022-12-08T06:54:46;9.30;;;8.40;;
64619;SDS011;51029;51.058;13.826;2022-12-08T06:57:11;9.73;;;8.20;;
64619;SDS011;51029;51.058;13.826;2022-12-08T06:59:37;10.33;;;9.33;;
64619;SDS011;51029;51.058;13.826;2022-12-08T07:02:03;15.63;;;13.60;;
64619;SDS011;51029;51.058;13.826;2022-12-08T07:04:29;9.90;;;8.87;;
64619;SDS011;51029;51.058;13.826;2022-12-08T07:06:55;11.10;;;9.70;;
64619;SDS011;51029;51.058;13.826;2022-12-08T07:09:20;10.43;;;8.33;;
64619;SDS011;51029;51.058;13.826;2022-12-08T07:11:46;9.43;;;8.43;;
64619;SDS011;51029;51.058;13.826;2022-12-08T07:14:11;12.30;;;10.57;;
64619;SDS011;51029;51.058;13.826;2022-12-08T07:16:37;9.30;;;8.40;;
64619;SDS011;51029;51.058;13.826;2022-12-08T07:19:03;9.10;;;8.20;;
64619;SDS011;51029;51.058;13.826;2022-12-08T07:21:30;8.70;;;7.90;;
64619;SDS011;51029;51.058;13.826;2022-12-08T07:23:55;10.40;;;9.10;;
64619;SDS011;51029;51.058;13.826;2022-12-08T07:26:21;9.17;;;7.87;;
64619;SDS011;51029;51.058;13.826;2022-12-08T07:28:47;8.97;;;8.07;;
64619;SDS011;51029;51.058;13.826;2022-12-08T07:31:20;9.53;;;8.53;;
64619;SDS011;51029;51.058;13.826;2022-12-08T07:33:47;9.93;;;8.50;;
64619;SDS011;51029;51.058;13.826;2022-12-08T07:36:14;11.00;;;8.30;;
64619;SDS011;51029;51.058;13.826;2022-12-08T07:38:39;8.73;;;7.80;;
64619;SDS011;51029;51.058;13.826;2022-12-08T07:41:09;9.00;;;8.10;;
64619;SDS011;51029;51.058;13.826;2022-12-08T07:43:36;10.40;;;9.23;;
64619;SDS011;51029;51.058;13.826;2022-12-08T07:46:02;9.17;;;8.27;;
64619;SDS011;51029;51.058;13.826;2022-12-08T07:48:27;9.03;;;8.20;;
64619;SDS011;51029;51.058;13.826;2022-12-08T07:50:58;8.87;;;8.03;;
64619;SDS011;51029;51.058;13.826;2022-12-08T07:53:25;9.60;;;8.17;;
64619;SDS011;51029;51.058;13.826;2022-12-08T07:55:50;9.50;;;8.60;;
64619;SDS011;51029;51.058;13.826;2022-12-08T07:58:16;9.87;;;8.60;;
64619;SDS011;51029;51.058;13.826;2022-12-08T08:00:41;11.97;;;9.03;;
64619;SDS011;51029;51.058;13.826;2022-12-08T08:03:08;9.83;;;8.83;;
64619;SDS011;51029;51.058;13.826;2022-12-08T08:05:35;11.40;;;8.50;;
64619;SDS011;51029;51.058;13.826;2022-12-08T08:08:01;8.47;;;7.47;;
64619;SDS011;51029;51.058;13.826;2022-12-08T08:10:26;9.30;;;7.30;;
64619;SDS011;51029;51.058;13.826;2022-12-08T08:12:52;9.43;;;8.50;;
64619;SDS011;51029;51.058;13.826;2022-12-08T08:15:17;9.17;;;7.93;;
64619;SDS011;51029;51.058;13.826;2022-12-08T08:17:47;8.63;;;7.83;;
64619;SDS011;51029;51.058;13.826;2022-12-08T08:20:14;8.27;;;7.47;;
64619;SDS011;51029;51.058;13.826;2022-12-08T08:22:39;8.70;;;7.37;;
64619;SDS011;51029;51.058;13.826;2022-12-08T08:25:05;11.00;;;8.10;;
64619;SDS011;51029;51.058;13.826;2022-12-08T08:27:31;9.77;;;8.87;;
64619;SDS011;51029;51.058;13.826;2022-12-08T08:29:56;8.50;;;7.20;;
64619;SDS011;51029;51.058;13.826;2022-12-08T08:32:22;9.10;;;8.30;;
64619;SDS011;51029;51.058;13.826;2022-12-08T08:34:48;9.03;;;8.13;;
64619;SDS011;51029;51.058;13.826;2022-12-08T08:37:14;8.27;;;7.33;;
64619;SDS011;51029;51.058;13.826;2022-12-08T08:39:40;10.03;;;8.87;;
64619;SDS011;51029;51.058;13.826;2022-12-08T08:42:06;8.83;;;7.97;;
64619;SDS011;51029;51.058;13.826;2022-12-08T08:44:32;9.43;;;8.43;;
64619;SDS011;51029;51.058;13.826;2022-12-08T08:46:58;9.77;;;8.37;;
64619;SDS011;51029;51.058;13.826;2022-12-08T08:49:23;9.33;;;8.00;;
64619;SDS011;51029;51.058;13.826;2022-12-08T08:51:49;9.97;;;8.83;;
64619;SDS011;51029;51.058;13.826;2022-12-08T08:54:14;9.57;;;8.30;;
64619;SDS011;51029;51.058;13.826;2022-12-08T08:56:40;9.60;;;8.03;;
64619;SDS011;51029;51.058;13.826;2022-12-08T08:59:06;8.53;;;7.63;;
64619;SDS011;51029;51.058;13.826;2022-12-08T09:01:32;9.40;;;8.23;;
64619;SDS011;51029;51.058;13.826;2022-12-08T09:03:58;9.10;;;7.93;;
64619;SDS011;51029;51.058;13.826;2022-12-08T09:06:24;8.50;;;7.10;;
64619;SDS011;51029;51.058;13.826;2022-12-08T09:08:51;9.20;;;7.47;;
64619;SDS011;51029;51.058;13.826;2022-12-08T09:11:18;8.87;;;7.93;;
64619;SDS011;51029;51.058;13.826;2022-12-08T09:13:46;9.90;;;8.83;;
64619;SDS011;51029;51.058;13.826;2022-12-08T09:16:13;9.80;;;8.77;;
64619;SDS011;51029;51.058;13.826;2022-12-08T09:18:39;10.73;;;8.57;;
64619;SDS011;51029;51.058;13.826;2022-12-08T09:21:08;11.00;;;9.63;;
64619;SDS011;51029;51.058;13.826;2022-12-08T09:23:37;10.03;;;8.53;;
64619;SDS011;51029;51.058;13.826;2022-12-08T09:26:03;9.10;;;7.73;;
64619;SDS011;51029;51.058;13.826;2022-12-08T09:28:29;8.03;;;6.90;;
64619;SDS011;51029;51.058;13.826;2022-12-08T09:30:55;9.33;;;8.33;;
64619;SDS011;51029;51.058;13.826;2022-12-08T09:33:21;8.80;;;7.70;;
64619;SDS011;51029;51.058;13.826;2022-12-08T09:35:47;8.97;;;8.07;;
64619;SDS011;51029;51.058;13.826;2022-12-08T09:38:12;10.37;;;8.30;;
64619;SDS011;51029;51.058;13.826;2022-12-08T09:40:44;8.97;;;8.07;;
64619;SDS011;51029;51.058;13.826;2022-12-08T09:46:06;7.97;;;7.10;;
64619;SDS011;51029;51.058;13.826;2022-12-08T09:48:35;8.90;;;8.00;;
64619;SDS011;51029;51.058;13.826;2022-12-08T09:51:05;9.13;;;7.77;;
64619;SDS011;51029;51.058;13.826;2022-12-08T09:53:37;8.33;;;7.53;;
64619;SDS011;51029;51.058;13.826;2022-12-08T09:56:30;8.97;;;7.67;;
64619;SDS011;51029;51.058;13.826;2022-12-08T10:01:32;7.70;;;7.00;;
64619;SDS011;51029;51.058;13.826;2022-12-08T10:04:02;7.53;;;6.63;;
64619;SDS011;51029;51.058;13.826;2022-12-08T10:11:56;7.27;;;6.67;;
64619;SDS011;51029;51.058;13.826;2022-12-08T10:17:04;6.93;;;6.30;;
64619;SDS011;51029;51.058;13.826;2022-12-08T10:19:50;7.67;;;6.07;;
64619;SDS011;51029;51.058;13.826;2022-12-08T10:22:24;6.50;;;6.00;;
64619;SDS011;51029;51.058;13.826;2022-12-08T10:24:56;6.40;;;5.80;;
64619;SDS011;51029;51.058;13.826;2022-12-08T10:27:38;6.20;;;5.70;;
64619;SDS011;51029;51.058;13.826;2022-12-08T10:30:11;5.80;;;5.30;;
64619;SDS011;51029;51.058;13.826;2022-12-08T10:32:37;6.17;;;5.40;;
64619;SDS011;51029;51.058;13.826;2022-12-08T10:35:06;6.30;;;5.80;;
64619;SDS011;51029;51.058;13.826;2022-12-08T10:37:34;5.90;;;5.40;;
64619;SDS011;51029;51.058;13.826;2022-12-08T10:40:11;5.70;;;5.20;;
64619;SDS011;51029;51.058;13.826;2022-12-08T10:42:49;6.50;;;6.00;;
64619;SDS011;51029;51.058;13.826;2022-12-08T10:47:57;7.10;;;6.40;;
64619;SDS011;51029;51.058;13.826;2022-12-08T10:50:40;9.03;;;6.63;;
64619;SDS011;51029;51.058;13.826;2022-12-08T11:03:58;7.90;;;6.83;;
64619;SDS011;51029;51.058;13.826;2022-12-08T11:06:36;6.57;;;6.00;;
64619;SDS011;51029;51.058;13.826;2022-12-08T11:09:21;7.30;;;6.60;;
64619;SDS011;51029;51.058;13.826;2022-12-08T11:14:18;6.80;;;6.10;;
64619;SDS011;51029;51.058;13.826;2022-12-08T11:16:53;7.17;;;6.47;;
64619;SDS011;51029;51.058;13.826;2022-12-08T11:19:26;6.33;;;5.73;;
64619;SDS011;51029;51.058;13.826;2022-12-08T11:21:52;6.20;;;5.70;;
64619;SDS011;51029;51.058;13.826;2022-12-08T11:24:25;6.00;;;5.40;;
64619;SDS011;51029;51.058;13.826;2022-12-08T11:27:02;7.07;;;5.90;;
64619;SDS011;51029;51.058;13.826;2022-12-08T11:29:32;6.20;;;5.60;;
64619;SDS011;51029;51.058;13.826;2022-12-08T11:32:06;6.03;;;5.43;;
64619;SDS011;51029;51.058;13.826;2022-12-08T11:37:18;5.73;;;5.17;;
64619;SDS011;51029;51.058;13.826;2022-12-08T11:40:00;6.50;;;5.30;;
64619;SDS011;51029;51.058;13.826;2022-12-08T11:42:59;5.47;;;4.97;;
64619;SDS011;51029;51.058;13.826;2022-12-08T11:45:41;5.93;;;5.33;;
64619;SDS011;51029;51.058;13.826;2022-12-08T11:50:50;6.00;;;5.20;;
64619;SDS011;51029;51.058;13.826;2022-12-08T11:53:25;4.90;;;4.40;;
64619;SDS011;51029;51.058;13.826;2022-12-08T11:56:16;4.90;;;4.40;;
64619;SDS011;51029;51.058;13.826;2022-12-08T11:59:31;5.27;;;4.60;;
64619;SDS011;51029;51.058;13.826;2022-12-08T12:01:40;4.97;;;4.47;;
64619;SDS011;51029;51.058;13.826;2022-12-08T12:12:28;5.37;;;4.87;;
64619;SDS011;51029;51.058;13.826;2022-12-08T12:15:13;5.57;;;4.87;;
64619;SDS011;51029;51.058;13.826;2022-12-08T12:20:37;6.17;;;4.90;;
64619;SDS011;51029;51.058;13.826;2022-12-08T12:23:07;4.93;;;4.33;;
64619;SDS011;51029;51.058;13.826;2022-12-08T12:25:44;5.20;;;4.73;;
64619;SDS011;51029;51.058;13.826;2022-12-08T12:28:39;5.40;;;4.60;;
64619;SDS011;51029;51.058;13.826;2022-12-08T12:31:29;6.63;;;4.60;;
64619;SDS011;51029;51.058;13.826;2022-12-08T12:34:06;4.70;;;4.30;;
64619;SDS011;51029;51.058;13.826;2022-12-08T12:36:49;7.30;;;4.23;;
64619;SDS011;51029;51.058;13.826;2022-12-08T12:40:35;4.13;;;3.73;;
64619;SDS011;51029;51.058;13.826;2022-12-08T12:42:45;4.30;;;3.90;;
64619;SDS011;51029;51.058;13.826;2022-12-08T12:47:45;4.00;;;3.60;;
64619;SDS011;51029;51.058;13.826;2022-12-08T12:50:11;5.13;;;4.17;;
64619;SDS011;51029;51.058;13.826;2022-12-08T12:52:39;4.30;;;3.90;;
64619;SDS011;51029;51.058;13.826;2022-12-08T12:57:34;4.73;;;4.30;;
64619;SDS011;51029;51.058;13.826;2022-12-08T13:00:21;5.80;;;4.47;;
64619;SDS011;51029;51.058;13.826;2022-12-08T13:02:48;5.93;;;5.00;;
64619;SDS011;51029;51.058;13.826;2022-12-08T13:05:18;4.60;;;4.17;;
64619;SDS011;51029;51.058;13.826;2022-12-08T13:07:57;4.73;;;4.20;;
64619;SDS011;51029;51.058;13.826;2022-12-08T13:18:20;4.73;;;4.23;;
64619;SDS011;51029;51.058;13.826;2022-12-08T13:21:10;5.50;;;4.63;;
64619;SDS011;51029;51.058;13.826;2022-12-08T13:26:15;6.07;;;4.80;;
64619;SDS011;51029;51.058;13.826;2022-12-08T13:34:14;6.57;;;4.73;;
64619;SDS011;51029;51.058;13.826;2022-12-08T13:44:42;5.10;;;4.53;;
64619;SDS011;51029;51.058;13.826;2022-12-08T13:47:16;5.80;;;4.50;;
64619;SDS011;51029;51.058;13.826;2022-12-08T13:49:50;5.60;;;4.47;;
64619;SDS011;51029;51.058;13.826;2022-12-08T13:52:33;5.17;;;4.63;;
64619;SDS011;51029;51.058;13.826;2022-12-08T13:55:01;5.57;;;4.67;;
64619;SDS011;51029;51.058;13.826;2022-12-08T13:57:35;6.50;;;5.43;;
64619;SDS011;51029;51.058;13.826;2022-12-08T14:00:03;5.53;;;5.03;;
64619;SDS011;51029;51.058;13.826;2022-12-08T14:02:42;5.10;;;4.60;;
64619;SDS011;51029;51.058;13.826;2022-12-08T14:05:12;4.87;;;4.30;;
64619;SDS011;51029;51.058;13.826;2022-12-08T14:07:39;4.90;;;4.50;;
64619;SDS011;51029;51.058;13.826;2022-12-08T14:10:07;5.47;;;4.50;;
64619;SDS011;51029;51.058;13.826;2022-12-08T14:12:38;10.50;;;7.97;;
64619;SDS011;51029;51.058;13.826;2022-12-08T14:15:09;15.60;;;11.23;;
64619;SDS011;51029;51.058;13.826;2022-12-08T14:17:38;13.50;;;10.00;;
64619;SDS011;51029;51.058;13.826;2022-12-08T14:22:37;5.80;;;4.93;;
64619;SDS011;51029;51.058;13.826;2022-12-08T14:25:04;7.13;;;6.20;;
64619;SDS011;51029;51.058;13.826;2022-12-08T14:27:33;6.33;;;5.70;;
64619;SDS011;51029;51.058;13.826;2022-12-08T14:30:07;6.10;;;5.50;;
64619;SDS011;51029;51.058;13.826;2022-12-08T14:32:53;6.90;;;5.67;;
64619;SDS011;51029;51.058;13.826;2022-12-08T14:35:26;9.60;;;6.23;;
64619;SDS011;51029;51.058;13.826;2022-12-08T14:37:56;9.37;;;7.13;;
64619;SDS011;51029;51.058;13.826;2022-12-08T14:40:26;8.77;;;6.70;;
64619;SDS011;51029;51.058;13.826;2022-12-08T14:43:10;8.40;;;5.40;;
64619;SDS011;51029;51.058;13.826;2022-12-08T14:51:10;6.23;;;5.07;;
64619;SDS011;51029;51.058;13.826;2022-12-08T14:53:40;6.20;;;5.13;;
64619;SDS011;51029;51.058;13.826;2022-12-08T14:58:46;5.67;;;4.80;;
64619;SDS011;51029;51.058;13.826;2022-12-08T15:01:14;7.70;;;5.50;;
64619;SDS011;51029;51.058;13.826;2022-12-08T15:03:44;9.43;;;5.63;;
64619;SDS011;51029;51.058;13.826;2022-12-08T15:06:11;7.27;;;5.10;;
64619;SDS011;51029;51.058;13.826;2022-12-08T15:08:56;12.33;;;7.30;;
64619;SDS011;51029;51.058;13.826;2022-12-08T15:13:48;16.40;;;10.13;;
64619;SDS011;51029;51.058;13.826;2022-12-08T15:22:06;12.30;;;7.30;;
64619;SDS011;51029;51.058;13.826;2022-12-08T15:24:37;11.87;;;7.37;;
64619;SDS011;51029;51.058;13.826;2022-12-08T15:27:03;8.17;;;6.00;;
64619;SDS011;51029;51.058;13.826;2022-12-08T15:29:29;9.20;;;6.67;;
64619;SDS011;51029;51.058;13.826;2022-12-08T15:31:58;13.03;;;8.57;;
64619;SDS011;51029;51.058;13.826;2022-12-08T15:34:25;7.57;;;6.13;;
64619;SDS011;51029;51.058;13.826;2022-12-08T15:36:52;12.70;;;6.30;;
64619;SDS011;51029;51.058;13.826;2022-12-08T15:39:24;8.43;;;6.17;;
64619;SDS011;51029;51.058;13.826;2022-12-08T15:41:57;6.67;;;5.97;;
64619;SDS011;51029;51.058;13.826;2022-12-08T15:44:23;7.80;;;5.80;;
64619;SDS011;51029;51.058;13.826;2022-12-08T15:46:49;8.03;;;5.70;;
64619;SDS011;51029;51.058;13.826;2022-12-08T15:49:15;9.97;;;5.93;;
64619;SDS011;51029;51.058;13.826;2022-12-08T15:51:42;8.53;;;6.47;;
64619;SDS011;51029;51.058;13.826;2022-12-08T15:54:08;9.53;;;6.23;;
64619;SDS011;51029;51.058;13.826;2022-12-08T15:56:34;7.63;;;5.93;;
64619;SDS011;51029;51.058;13.826;2022-12-08T15:59:01;6.77;;;5.90;;
64619;SDS011;51029;51.058;13.826;2022-12-08T16:01:27;6.33;;;5.70;;
64619;SDS011;51029;51.058;13.826;2022-12-08T16:03:53;7.10;;;5.90;;
64619;SDS011;51029;51.058;13.826;2022-12-08T16:06:19;9.07;;;6.00;;
64619;SDS011;51029;51.058;13.826;2022-12-08T16:08:45;7.03;;;6.30;;
64619;SDS011;51029;51.058;13.826;2022-12-08T16:11:11;7.77;;;5.67;;
64619;SDS011;51029;51.058;13.826;2022-12-08T16:13:55;7.53;;;5.77;;
64619;SDS011;51029;51.058;13.826;2022-12-08T16:16:27;7.03;;;5.73;;
64619;SDS011;51029;51.058;13.826;2022-12-08T16:18:53;8.73;;;6.00;;
64619;SDS011;51029;51.058;13.826;2022-12-08T16:21:19;16.17;;;11.80;;
64619;SDS011;51029;51.058;13.826;2022-12-08T16:23:45;7.27;;;6.03;;
64619;SDS011;51029;51.058;13.826;2022-12-08T16:26:12;6.67;;;5.13;;
64619;SDS011;51029;51.058;13.826;2022-12-08T16:28:39;6.60;;;5.43;;
64619;SDS011;51029;51.058;13.826;2022-12-08T16:31:08;5.53;;;4.83;;
64619;SDS011;51029;51.058;13.826;2022-12-08T16:33:37;5.20;;;4.70;;
64619;SDS011;51029;51.058;13.826;2022-12-08T16:36:03;6.47;;;5.00;;
64619;SDS011;51029;51.058;13.826;2022-12-08T16:38:28;5.63;;;4.77;;
64619;SDS011;51029;51.058;13.826;2022-12-08T16:40:54;6.03;;;5.33;;
64619;SDS011;51029;51.058;13.826;2022-12-08T16:43:38;6.90;;;5.43;;
64619;SDS011;51029;51.058;13.826;2022-12-08T16:46:04;5.50;;;4.93;;
64619;SDS011;51029;51.058;13.826;2022-12-08T16:48:29;7.07;;;6.37;;
64619;SDS011;51029;51.058;13.826;2022-12-08T16:50:55;7.00;;;6.00;;